JOE676 KMEM-KBNA
Flight info
| Callsign | JOE676 |
|---|---|
| Flight time | 0h 43m |
| Altitude | 21000 |
| Route | GOETZ7 DIYAB CHSNE CHSNE2 |
| Aircraft | A20N/M-SDE2E3FGHIRWXY/LB1 |
Departure
| Time | 2026-05-06 01:03 |
|---|---|
| Airport | Memphis International Airport (KMEM) |
Arrival
| Time | 2026-05-06 01:46 |
|---|---|
| Airport | Nashville International Airport (KBNA) |
| Time | Latitude | Longitude | Altitude | Speed | Heading |
|---|---|---|---|---|---|
| 2026-05-06 00:29 | 35.04432 | -89.97919 | 314 ft | 0 kts | 226° |
| 2026-05-06 00:51 | 35.04435 | -89.97915 | 295 ft | 2 kts | 226° |
| 2026-05-06 00:51 | 35.04443 | -89.97901 | 311 ft | 2 kts | 266° |
| 2026-05-06 00:51 | 35.04441 | -89.97884 | 311 ft | 2 kts | 297° |
| 2026-05-06 00:51 | 35.04435 | -89.97868 | 313 ft | 2 kts | 295° |
| 2026-05-06 00:52 | 35.04428 | -89.97853 | 313 ft | 2 kts | 315° |
| 2026-05-06 00:52 | 35.04417 | -89.97843 | 314 ft | 2 kts | 342° |
| 2026-05-06 00:52 | 35.04409 | -89.97840 | 315 ft | 0 kts | 357° |
| 2026-05-06 00:57 | 35.04441 | -89.97841 | 315 ft | 10 kts | 359° |
| 2026-05-06 00:57 | 35.04536 | -89.97841 | 314 ft | 15 kts | 358° |
| 2026-05-06 00:57 | 35.04622 | -89.97821 | 313 ft | 11 kts | 48° |
| 2026-05-06 00:57 | 35.04662 | -89.97755 | 313 ft | 10 kts | 18° |
| 2026-05-06 00:58 | 35.04738 | -89.97752 | 312 ft | 14 kts | 360° |
| 2026-05-06 00:58 | 35.04852 | -89.97754 | 313 ft | 17 kts | 357° |
| 2026-05-06 00:58 | 35.04976 | -89.97758 | 314 ft | 18 kts | 358° |
| 2026-05-06 00:58 | 35.05104 | -89.97761 | 315 ft | 18 kts | 360° |
| 2026-05-06 00:59 | 35.05229 | -89.97762 | 319 ft | 17 kts | 359° |
| 2026-05-06 00:59 | 35.05343 | -89.97774 | 321 ft | 16 kts | 352° |
| 2026-05-06 00:59 | 35.05435 | -89.97756 | 324 ft | 12 kts | 51° |
| 2026-05-06 00:59 | 35.05442 | -89.97739 | 324 ft | 0 kts | 70° |
| 2026-05-06 01:02 | 35.05442 | -89.97736 | 326 ft | 2 kts | 79° |
| 2026-05-06 01:02 | 35.05429 | -89.97635 | 324 ft | 17 kts | 132° |
| 2026-05-06 01:02 | 35.05216 | -89.97612 | 320 ft | 69 kts | 179° |
| 2026-05-06 01:02 | 35.04466 | -89.97598 | 317 ft | 142 kts | 179° |
| 2026-05-06 01:03 | 35.03321 | -89.97562 | 595 ft | 180 kts | 181° |
| 2026-05-06 01:03 | 35.02022 | -89.97517 | 1494 ft | 185 kts | 180° |
| 2026-05-06 01:03 | 35.00776 | -89.97455 | 2856 ft | 179 kts | 184° |
| 2026-05-06 01:03 | 34.99478 | -89.97388 | 3770 ft | 198 kts | 183° |
| 2026-05-06 01:04 | 34.97990 | -89.97057 | 4317 ft | 241 kts | 169° |
| 2026-05-06 01:04 | 34.96283 | -89.96291 | 4616 ft | 280 kts | 165° |
| 2026-05-06 01:04 | 34.94424 | -89.95126 | 4781 ft | 326 kts | 147° |
| 2026-05-06 01:04 | 34.92820 | -89.92928 | 4839 ft | 371 kts | 126° |
| 2026-05-06 01:05 | 34.91863 | -89.89870 | 5218 ft | 399 kts | 103° |
| 2026-05-06 01:05 | 34.91818 | -89.86555 | 6396 ft | 396 kts | 83° |
| 2026-05-06 01:05 | 34.92607 | -89.83391 | 7702 ft | 386 kts | 64° |
| 2026-05-06 01:05 | 34.93910 | -89.80596 | 9126 ft | 372 kts | 52° |
| 2026-05-06 01:06 | 34.95380 | -89.77996 | 10073 ft | 379 kts | 52° |
| 2026-05-06 01:06 | 34.96826 | -89.75214 | 10616 ft | 394 kts | 54° |
| 2026-05-06 01:06 | 34.98236 | -89.72308 | 11394 ft | 401 kts | 55° |
| 2026-05-06 01:06 | 34.99630 | -89.69329 | 12218 ft | 409 kts | 55° |
| 2026-05-06 01:07 | 35.01048 | -89.66276 | 12955 ft | 417 kts | 54° |
| 2026-05-06 01:07 | 35.02489 | -89.63176 | 13767 ft | 423 kts | 54° |
| 2026-05-06 01:07 | 35.03955 | -89.60032 | 14509 ft | 428 kts | 54° |
| 2026-05-06 01:07 | 35.05439 | -89.56859 | 15247 ft | 435 kts | 54° |
| 2026-05-06 01:08 | 35.06969 | -89.53598 | 15630 ft | 452 kts | 54° |
| 2026-05-06 01:08 | 35.08567 | -89.50198 | 15786 ft | 473 kts | 54° |
| 2026-05-06 01:08 | 35.10189 | -89.46723 | 15834 ft | 462 kts | 54° |
| 2026-05-06 01:08 | 35.11739 | -89.43375 | 15841 ft | 451 kts | 54° |
| 2026-05-06 01:09 | 35.13295 | -89.40033 | 15840 ft | 453 kts | 54° |
| 2026-05-06 01:09 | 35.14859 | -89.36680 | 15843 ft | 455 kts | 54° |
| 2026-05-06 01:09 | 35.16429 | -89.33314 | 15841 ft | 457 kts | 54° |
| 2026-05-06 01:09 | 35.18005 | -89.29930 | 15838 ft | 459 kts | 54° |
| 2026-05-06 01:10 | 35.19560 | -89.26579 | 16270 ft | 447 kts | 54° |
| 2026-05-06 01:10 | 35.21047 | -89.23293 | 16878 ft | 436 kts | 58° |
| 2026-05-06 01:10 | 35.22198 | -89.19868 | 17133 ft | 438 kts | 68° |
| 2026-05-06 01:10 | 35.23115 | -89.16297 | 17219 ft | 440 kts | 69° |
| 2026-05-06 01:11 | 35.24035 | -89.12714 | 17355 ft | 440 kts | 69° |
| 2026-05-06 01:11 | 35.25131 | -89.09259 | 17775 ft | 434 kts | 61° |
| 2026-05-06 01:11 | 35.26378 | -89.05873 | 18279 ft | 440 kts | 61° |
| 2026-05-06 01:11 | 35.27635 | -89.02425 | 18738 ft | 446 kts | 61° |
| 2026-05-06 01:12 | 35.28901 | -88.98938 | 19200 ft | 451 kts | 61° |
| 2026-05-06 01:12 | 35.30178 | -88.95415 | 19668 ft | 455 kts | 61° |
| 2026-05-06 01:12 | 35.31451 | -88.91900 | 20138 ft | 460 kts | 62° |
| 2026-05-06 01:12 | 35.32752 | -88.88308 | 20593 ft | 465 kts | 62° |
| 2026-05-06 01:13 | 35.34081 | -88.84640 | 20794 ft | 477 kts | 62° |
| 2026-05-06 01:13 | 35.35439 | -88.80889 | 20841 ft | 480 kts | 62° |
| 2026-05-06 01:13 | 35.36770 | -88.77186 | 20842 ft | 470 kts | 62° |
| 2026-05-06 01:13 | 35.38072 | -88.73558 | 20844 ft | 461 kts | 62° |
| 2026-05-06 01:14 | 35.40664 | -88.66357 | 20851 ft | 459 kts | 62° |
| 2026-05-06 01:14 | 35.41936 | -88.62812 | 20853 ft | 451 kts | 62° |
| 2026-05-06 01:14 | 35.43203 | -88.59285 | 20857 ft | 454 kts | 62° |
| 2026-05-06 01:15 | 35.44477 | -88.55736 | 20848 ft | 454 kts | 62° |
| 2026-05-06 01:15 | 35.45747 | -88.52191 | 20853 ft | 454 kts | 62° |
| 2026-05-06 01:15 | 35.47015 | -88.48646 | 20854 ft | 454 kts | 62° |
| 2026-05-06 01:15 | 35.48282 | -88.45103 | 20860 ft | 453 kts | 62° |
| 2026-05-06 01:16 | 35.49546 | -88.41564 | 20867 ft | 453 kts | 63° |
| 2026-05-06 01:16 | 35.50806 | -88.38034 | 20856 ft | 450 kts | 63° |
| 2026-05-06 01:16 | 35.52062 | -88.34508 | 20859 ft | 451 kts | 63° |
| 2026-05-06 01:16 | 35.53320 | -88.30972 | 20858 ft | 452 kts | 63° |
| 2026-05-06 01:17 | 35.54574 | -88.27442 | 20858 ft | 451 kts | 63° |
| 2026-05-06 01:17 | 35.55826 | -88.23912 | 20860 ft | 451 kts | 63° |
| 2026-05-06 01:17 | 35.57080 | -88.20375 | 20859 ft | 451 kts | 63° |
| 2026-05-06 01:17 | 35.58329 | -88.16846 | 20860 ft | 451 kts | 63° |
| 2026-05-06 01:18 | 35.59570 | -88.13332 | 20837 ft | 442 kts | 63° |
| 2026-05-06 01:18 | 35.60772 | -88.09920 | 20694 ft | 429 kts | 63° |
| 2026-05-06 01:18 | 35.61938 | -88.06610 | 20528 ft | 415 kts | 63° |
| 2026-05-06 01:18 | 35.63079 | -88.03377 | 19723 ft | 414 kts | 63° |
| 2026-05-06 01:19 | 35.64239 | -88.00096 | 18661 ft | 423 kts | 63° |
| 2026-05-06 01:19 | 35.65412 | -87.96773 | 17851 ft | 422 kts | 64° |
| 2026-05-06 01:19 | 35.66568 | -87.93483 | 17120 ft | 416 kts | 64° |
| 2026-05-06 01:19 | 35.67708 | -87.90232 | 16380 ft | 412 kts | 64° |
| 2026-05-06 01:20 | 35.68833 | -87.87021 | 15680 ft | 407 kts | 64° |
| 2026-05-06 01:20 | 35.69942 | -87.83854 | 15198 ft | 399 kts | 64° |
| 2026-05-06 01:20 | 35.71033 | -87.80737 | 15038 ft | 405 kts | 64° |
| 2026-05-06 01:20 | 35.72143 | -87.77565 | 14884 ft | 402 kts | 64° |
| 2026-05-06 01:21 | 35.73243 | -87.74416 | 14495 ft | 401 kts | 64° |
| 2026-05-06 01:21 | 35.74354 | -87.71236 | 14162 ft | 398 kts | 64° |
| 2026-05-06 01:21 | 35.75427 | -87.68159 | 13832 ft | 392 kts | 65° |
| 2026-05-06 01:21 | 35.76513 | -87.65041 | 13332 ft | 390 kts | 65° |
| 2026-05-06 01:22 | 35.77577 | -87.61983 | 12843 ft | 387 kts | 65° |
| 2026-05-06 01:22 | 35.78620 | -87.58982 | 12373 ft | 384 kts | 65° |
| 2026-05-06 01:22 | 35.79662 | -87.55978 | 12076 ft | 378 kts | 65° |
| 2026-05-06 01:22 | 35.80703 | -87.52978 | 11994 ft | 383 kts | 66° |
| 2026-05-06 01:23 | 35.81748 | -87.49965 | 11984 ft | 382 kts | 65° |
| 2026-05-06 01:23 | 35.82791 | -87.46951 | 11983 ft | 382 kts | 65° |
| 2026-05-06 01:23 | 35.83848 | -87.43945 | 11980 ft | 382 kts | 65° |
| 2026-05-06 01:23 | 35.84910 | -87.40937 | 11984 ft | 383 kts | 65° |
| 2026-05-06 01:24 | 35.85972 | -87.37933 | 11980 ft | 383 kts | 65° |
| 2026-05-06 01:24 | 35.87034 | -87.34922 | 11979 ft | 383 kts | 65° |
| 2026-05-06 01:24 | 35.88096 | -87.31912 | 11978 ft | 382 kts | 65° |
| 2026-05-06 01:24 | 35.89163 | -87.28914 | 11981 ft | 382 kts | 65° |
| 2026-05-06 01:25 | 35.90229 | -87.25914 | 11979 ft | 382 kts | 65° |
| 2026-05-06 01:25 | 35.91300 | -87.22917 | 11980 ft | 381 kts | 65° |
| 2026-05-06 01:25 | 35.92368 | -87.19931 | 11772 ft | 379 kts | 65° |
| 2026-05-06 01:25 | 35.93430 | -87.16964 | 11401 ft | 377 kts | 65° |
| 2026-05-06 01:26 | 35.94490 | -87.14015 | 10979 ft | 374 kts | 65° |
| 2026-05-06 01:26 | 35.95548 | -87.11094 | 10558 ft | 371 kts | 65° |
| 2026-05-06 01:26 | 35.96601 | -87.08199 | 10153 ft | 367 kts | 65° |
| 2026-05-06 01:26 | 35.97633 | -87.05377 | 10014 ft | 354 kts | 65° |
| 2026-05-06 01:27 | 35.98610 | -87.02707 | 9976 ft | 338 kts | 65° |
| 2026-05-06 01:27 | 35.99557 | -87.00111 | 9977 ft | 331 kts | 65° |
| 2026-05-06 01:27 | 36.00473 | -86.97464 | 9975 ft | 337 kts | 67° |
| 2026-05-06 01:27 | 36.01361 | -86.94805 | 9973 ft | 334 kts | 67° |
| 2026-05-06 01:28 | 36.02241 | -86.92158 | 9966 ft | 333 kts | 67° |
| 2026-05-06 01:28 | 36.03129 | -86.89500 | 9971 ft | 335 kts | 67° |
| 2026-05-06 01:28 | 36.04015 | -86.86841 | 9966 ft | 334 kts | 67° |
| 2026-05-06 01:28 | 36.04887 | -86.84223 | 9925 ft | 328 kts | 66° |
| 2026-05-06 01:29 | 36.06037 | -86.81869 | 9864 ft | 314 kts | 43° |
| 2026-05-06 01:29 | 36.07737 | -86.80327 | 9671 ft | 297 kts | 20° |
| 2026-05-06 01:29 | 36.08998 | -86.79609 | 9427 ft | 294 kts | 15° |
| 2026-05-06 01:29 | 36.10881 | -86.78781 | 9091 ft | 289 kts | 11° |
| 2026-05-06 01:30 | 36.12794 | -86.78024 | 8724 ft | 288 kts | 9° |
| 2026-05-06 01:30 | 36.14714 | -86.77332 | 8329 ft | 287 kts | 9° |
| 2026-05-06 01:30 | 36.16631 | -86.76661 | 8073 ft | 283 kts | 9° |
| 2026-05-06 01:30 | 36.18525 | -86.75998 | 8008 ft | 286 kts | 8° |
| 2026-05-06 01:31 | 36.20437 | -86.75328 | 7990 ft | 285 kts | 9° |
| 2026-05-06 01:31 | 36.22318 | -86.74663 | 7927 ft | 277 kts | 9° |
| 2026-05-06 01:31 | 36.24139 | -86.74007 | 7831 ft | 267 kts | 9° |
| 2026-05-06 01:31 | 36.25886 | -86.73370 | 7727 ft | 256 kts | 8° |
| 2026-05-06 01:32 | 36.27570 | -86.72747 | 7554 ft | 250 kts | 8° |
| 2026-05-06 01:32 | 36.29236 | -86.72123 | 7247 ft | 250 kts | 9° |
| 2026-05-06 01:32 | 36.30907 | -86.71505 | 6952 ft | 251 kts | 9° |
| 2026-05-06 01:32 | 36.32577 | -86.70900 | 6643 ft | 249 kts | 8° |
| 2026-05-06 01:33 | 36.34232 | -86.70290 | 6366 ft | 248 kts | 8° |
| 2026-05-06 01:33 | 36.35885 | -86.69680 | 6055 ft | 247 kts | 9° |
| 2026-05-06 01:33 | 36.37530 | -86.69093 | 5773 ft | 246 kts | 9° |
| 2026-05-06 01:33 | 36.39183 | -86.68509 | 5398 ft | 248 kts | 9° |
| 2026-05-06 01:34 | 36.40848 | -86.67923 | 5093 ft | 247 kts | 9° |
| 2026-05-06 01:34 | 36.42466 | -86.67363 | 4897 ft | 241 kts | 8° |
| 2026-05-06 01:34 | 36.44061 | -86.66809 | 4676 ft | 236 kts | 8° |
| 2026-05-06 01:34 | 36.45636 | -86.66200 | 4324 ft | 242 kts | 24° |
| 2026-05-06 01:35 | 36.46882 | -86.64856 | 4064 ft | 241 kts | 60° |
| 2026-05-06 01:35 | 36.47701 | -86.63059 | 3992 ft | 238 kts | 65° |
| 2026-05-06 01:35 | 36.48484 | -86.61247 | 3993 ft | 239 kts | 65° |
| 2026-05-06 01:35 | 36.49279 | -86.59412 | 4001 ft | 242 kts | 65° |
| 2026-05-06 01:36 | 36.50075 | -86.57571 | 3996 ft | 243 kts | 65° |
| 2026-05-06 01:36 | 36.50715 | -86.55666 | 3993 ft | 232 kts | 89° |
| 2026-05-06 01:36 | 36.50574 | -86.53770 | 4005 ft | 213 kts | 125° |
| 2026-05-06 01:36 | 36.49701 | -86.52449 | 4005 ft | 188 kts | 161° |
| 2026-05-06 01:37 | 36.48518 | -86.52144 | 4010 ft | 170 kts | 197° |
| 2026-05-06 01:37 | 36.47449 | -86.52684 | 4004 ft | 165 kts | 213° |
| 2026-05-06 01:37 | 36.46498 | -86.53475 | 4006 ft | 164 kts | 216° |
| 2026-05-06 01:37 | 36.45553 | -86.54288 | 4004 ft | 166 kts | 216° |
| 2026-05-06 01:38 | 36.44605 | -86.55112 | 4006 ft | 169 kts | 216° |
| 2026-05-06 01:38 | 36.43636 | -86.55950 | 4004 ft | 169 kts | 216° |
| 2026-05-06 01:38 | 36.42613 | -86.56658 | 4025 ft | 170 kts | 204° |
| 2026-05-06 01:38 | 36.41486 | -86.57124 | 4010 ft | 170 kts | 201° |
| 2026-05-06 01:39 | 36.40408 | -86.57534 | 4027 ft | 153 kts | 201° |
| 2026-05-06 01:39 | 36.39394 | -86.57916 | 4013 ft | 157 kts | 201° |
| 2026-05-06 01:39 | 36.38360 | -86.58307 | 3999 ft | 154 kts | 202° |
| 2026-05-06 01:39 | 36.37345 | -86.58692 | 4016 ft | 150 kts | 202° |
| 2026-05-06 01:40 | 36.36359 | -86.59067 | 4008 ft | 146 kts | 202° |
| 2026-05-06 01:40 | 36.35390 | -86.59438 | 4009 ft | 145 kts | 202° |
| 2026-05-06 01:40 | 36.34417 | -86.59813 | 4007 ft | 147 kts | 202° |
| 2026-05-06 01:40 | 36.33432 | -86.60191 | 4007 ft | 149 kts | 202° |
| 2026-05-06 01:41 | 36.32442 | -86.60574 | 4004 ft | 149 kts | 202° |
| 2026-05-06 01:41 | 36.31464 | -86.60950 | 3993 ft | 144 kts | 202° |
| 2026-05-06 01:41 | 36.30496 | -86.61325 | 3933 ft | 146 kts | 202° |
| 2026-05-06 01:41 | 36.29531 | -86.61701 | 3739 ft | 144 kts | 201° |
| 2026-05-06 01:42 | 36.28573 | -86.62073 | 3555 ft | 145 kts | 201° |
| 2026-05-06 01:42 | 36.27597 | -86.62459 | 3365 ft | 144 kts | 200° |
| 2026-05-06 01:42 | 36.26647 | -86.62833 | 3184 ft | 142 kts | 199° |
| 2026-05-06 01:42 | 36.25716 | -86.63198 | 3005 ft | 139 kts | 198° |
| 2026-05-06 01:43 | 36.24792 | -86.63560 | 2827 ft | 138 kts | 199° |
| 2026-05-06 01:43 | 36.23872 | -86.63918 | 2644 ft | 140 kts | 199° |
| 2026-05-06 01:43 | 36.22948 | -86.64280 | 2453 ft | 141 kts | 199° |
| 2026-05-06 01:43 | 36.22025 | -86.64646 | 2277 ft | 137 kts | 197° |
| 2026-05-06 01:44 | 36.21142 | -86.64990 | 2098 ft | 130 kts | 197° |
| 2026-05-06 01:44 | 36.20257 | -86.65334 | 1930 ft | 135 kts | 196° |
| 2026-05-06 01:44 | 36.19380 | -86.65680 | 1749 ft | 131 kts | 195° |
| 2026-05-06 01:44 | 36.18490 | -86.66029 | 1557 ft | 136 kts | 195° |
| 2026-05-06 01:45 | 36.17610 | -86.66358 | 1454 ft | 125 kts | 196° |
| 2026-05-06 01:45 | 36.16742 | -86.66697 | 1223 ft | 133 kts | 198° |
| 2026-05-06 01:45 | 36.15873 | -86.67038 | 1005 ft | 130 kts | 197° |
| 2026-05-06 01:45 | 36.15021 | -86.67381 | 815 ft | 128 kts | 195° |
| 2026-05-06 01:46 | 36.14115 | -86.67724 | 638 ft | 137 kts | 198° |
| 2026-05-06 01:46 | 36.13275 | -86.68058 | 577 ft | 86 kts | 198° |
| 2026-05-06 01:46 | 36.12950 | -86.68186 | 578 ft | 39 kts | 198° |
| 2026-05-06 01:46 | 36.12765 | -86.68251 | 578 ft | 21 kts | 202° |
| 2026-05-06 01:47 | 36.12624 | -86.68313 | 580 ft | 26 kts | 198° |
| 2026-05-06 01:47 | 36.12412 | -86.68398 | 580 ft | 33 kts | 197° |
| 2026-05-06 01:47 | 36.12332 | -86.68458 | 583 ft | 9 kts | 257° |
| 2026-05-06 01:47 | 36.12313 | -86.68566 | 584 ft | 14 kts | 226° |
| 2026-05-06 01:48 | 36.12299 | -86.68589 | 584 ft | 1 kts | 233° |
| 2026-05-06 01:48 | 36.12298 | -86.68591 | 584 ft | 0 kts | 233° |
| 2026-05-06 01:48 | 36.12298 | -86.68590 | 584 ft | 0 kts | 233° |
| 2026-05-06 01:48 | 36.12299 | -86.68589 | 584 ft | 0 kts | 233° |
| 2026-05-06 01:49 | 36.12300 | -86.68588 | 584 ft | 0 kts | 233° |
| 2026-05-06 01:49 | 36.12300 | -86.68587 | 584 ft | 0 kts | 233° |
| 2026-05-06 01:49 | 36.12301 | -86.68586 | 584 ft | 0 kts | 233° |
| 2026-05-06 01:49 | 36.12301 | -86.68585 | 584 ft | 0 kts | 233° |
| 2026-05-06 01:50 | 36.12302 | -86.68585 | 584 ft | 0 kts | 236° |
| 2026-05-06 01:50 | 36.12305 | -86.68632 | 585 ft | 3 kts | 310° |
| 2026-05-06 01:50 | 36.12414 | -86.68621 | 582 ft | 26 kts | 34° |
| 2026-05-06 01:50 | 36.12569 | -86.68496 | 579 ft | 30 kts | 16° |
| 2026-05-06 01:51 | 36.12775 | -86.68414 | 581 ft | 32 kts | 17° |
| 2026-05-06 01:51 | 36.12992 | -86.68330 | 581 ft | 28 kts | 18° |
| 2026-05-06 01:51 | 36.13046 | -86.68308 | 581 ft | 0 kts | 18° |
| 2026-05-06 01:51 | 36.13047 | -86.68307 | 581 ft | 1 kts | 18° |
| 2026-05-06 01:52 | 36.13050 | -86.68306 | 581 ft | 0 kts | 18° |
| 2026-05-06 01:52 | 36.13060 | -86.68302 | 581 ft | 4 kts | 18° |
| 2026-05-06 01:52 | 36.13103 | -86.68285 | 580 ft | 9 kts | 18° |
| 2026-05-06 01:52 | 36.13190 | -86.68252 | 578 ft | 19 kts | 17° |
| 2026-05-06 01:53 | 36.13361 | -86.68185 | 574 ft | 30 kts | 18° |
| 2026-05-06 01:53 | 36.13577 | -86.68099 | 574 ft | 34 kts | 18° |
| 2026-05-06 01:53 | 36.13774 | -86.68002 | 565 ft | 7 kts | 32° |
| 2026-05-06 01:53 | 36.13788 | -86.67984 | 566 ft | 0 kts | 60° |
| 2026-05-06 01:54 | 36.13785 | -86.67916 | 571 ft | 14 kts | 107° |
| 2026-05-06 01:54 | 36.13755 | -86.67790 | 570 ft | 17 kts | 106° |
| 2026-05-06 01:54 | 36.13698 | -86.67711 | 570 ft | 0 kts | 185° |
| 2026-05-06 01:54 | 36.13651 | -86.67716 | 569 ft | 14 kts | 184° |
| 2026-05-06 01:55 | 36.13572 | -86.67649 | 573 ft | 16 kts | 115° |
| 2026-05-06 01:55 | 36.13530 | -86.67492 | 564 ft | 25 kts | 108° |
| 2026-05-06 01:55 | 36.13467 | -86.67251 | 569 ft | 33 kts | 107° |
| 2026-05-06 01:55 | 36.13444 | -86.67088 | 571 ft | 2 kts | 51° |
| 2026-05-06 01:56 | 36.13532 | -86.67035 | 573 ft | 25 kts | 24° |
| 2026-05-06 01:56 | 36.13593 | -86.66903 | 569 ft | 9 kts | 112° |
| 2026-05-06 01:56 | 36.13566 | -86.66879 | 569 ft | 0 kts | 166° |
| 2026-05-06 01:56 | 36.13561 | -86.66878 | 569 ft | 1 kts | 166° |